createdAt,value
2018-02-22T00:00:30.871Z,70.80
2018-02-22T00:02:31.851Z,71.10
2018-02-22T00:04:32.833Z,71.40
2018-02-22T00:06:33.843Z,72.00
2018-02-22T00:08:34.820Z,71.70
2018-02-22T00:10:36.016Z,71.60
2018-02-22T00:12:37.118Z,72.00
2018-02-22T00:14:38.136Z,73.10
2018-02-22T00:16:53.404Z,72.50
2018-02-22T00:18:54.383Z,72.50
2018-02-22T00:20:55.508Z,72.30
2018-02-22T00:22:56.443Z,72.80
2018-02-22T00:24:57.588Z,72.80
2018-02-22T00:26:58.537Z,73.10
2018-02-22T00:28:59.510Z,73.70
2018-02-22T00:31:00.477Z,74.60
2018-02-22T00:33:01.562Z,74.50
2018-02-22T00:35:02.539Z,74.90
2018-02-22T00:39:31.486Z,75.50
2018-02-22T00:41:32.605Z,75.50
2018-02-22T00:43:34.446Z,75.00
2018-02-22T00:45:35.452Z,75.00
2018-02-22T00:47:36.450Z,76.10
2018-02-22T00:52:06.129Z,75.90
2018-02-22T00:54:07.475Z,77.10
2018-02-22T00:56:08.475Z,77.70
2018-02-22T00:58:09.423Z,78.30
2018-02-22T01:02:40.082Z,78.20
2018-02-22T01:04:41.590Z,77.00
2018-02-22T01:06:43.950Z,77.70
2018-02-22T01:08:45.782Z,77.60
2018-02-22T01:10:47.223Z,77.90
2018-02-22T01:12:48.944Z,78.10
2018-02-22T01:14:51.582Z,78.00
2018-02-22T01:16:53.527Z,78.10
2018-02-22T01:23:54.157Z,78.30
2018-02-22T01:25:55.776Z,78.10
2018-02-22T01:27:57.519Z,78.00
2018-02-22T01:29:59.273Z,78.30
2018-02-22T01:32:00.763Z,80.10
2018-02-22T01:34:02.094Z,80.90
2018-02-22T01:36:03.929Z,80.10
2018-02-22T01:38:05.502Z,81.20
2018-02-22T01:40:07.145Z,82.00
2018-02-22T01:42:08.975Z,82.40
2018-02-22T01:44:10.404Z,83.10
2018-02-22T01:46:28.436Z,82.90
2018-02-22T01:53:25.730Z,85.10
2018-02-22T01:55:27.387Z,84.60
2018-02-22T01:57:29.155Z,84.60
2018-02-22T01:59:30.905Z,84.20
2018-02-22T02:01:57.733Z,84.80
2018-02-22T02:03:59.380Z,85.10
2018-02-22T02:08:30.023Z,86.70
2018-02-22T02:13:00.568Z,87.10
2018-02-22T02:15:02.392Z,87.70
2018-02-22T02:17:04.172Z,87.90
2018-02-22T02:19:26.010Z,88.30
2018-02-22T02:21:27.972Z,88.10
2018-02-22T02:23:34.097Z,88.70
2018-02-22T02:25:35.904Z,88.50
2018-02-22T02:27:38.851Z,88.50
2018-02-22T02:29:39.853Z,89.40
2018-02-22T02:34:08.952Z,89.80
2018-02-22T02:36:10.211Z,90.00
2018-02-22T02:38:11.176Z,90.40
2018-02-22T02:40:12.169Z,90.50
2018-02-22T02:42:13.361Z,90.50
2018-02-22T02:44:14.648Z,90.70
2018-02-22T02:46:22.108Z,90.90
2018-02-22T02:48:23.069Z,90.80
2018-02-22T03:05:21.563Z,92.80
2018-02-22T03:07:22.592Z,92.90
2018-02-22T03:14:45.679Z,92.50
2018-02-22T03:17:12.292Z,92.50
2018-02-22T03:19:15.173Z,92.90
2018-02-22T03:21:20.302Z,92.70
2018-02-22T03:23:24.882Z,92.70
2018-02-22T03:25:26.936Z,92.70
2018-02-22T03:27:29.829Z,92.40
2018-02-22T03:29:31.824Z,92.80
2018-02-22T03:31:33.708Z,92.60
2018-02-22T03:36:11.396Z,93.00
2018-02-22T03:38:13.656Z,92.80
2018-02-22T03:47:49.583Z,93.40
2018-02-22T03:49:59.047Z,93.60
2018-02-22T03:52:01.380Z,93.60
2018-02-22T03:54:02.376Z,93.30
2018-02-22T03:58:31.429Z,93.10
2018-02-22T04:00:32.404Z,93.10
2018-02-22T04:05:01.334Z,93.00
2018-02-22T04:07:02.295Z,92.60
2018-02-22T04:09:03.267Z,92.40
2018-02-22T04:11:04.374Z,92.40
2018-02-22T04:13:05.339Z,92.30
2018-02-22T04:15:07.914Z,92.50
2018-02-22T04:17:09.201Z,92.50
2018-02-22T04:19:10.186Z,92.50
2018-02-22T04:21:11.390Z,92.30
2018-02-22T04:23:12.400Z,92.10
2018-02-22T04:25:13.388Z,91.70
2018-02-22T04:27:31.788Z,92.00
2018-02-22T04:32:09.731Z,91.80
2018-02-22T04:34:10.739Z,92.10
2018-02-22T04:36:30.969Z,91.40
2018-02-22T04:38:31.939Z,91.50
2018-02-22T04:43:01.004Z,91.20
2018-02-22T04:45:02.284Z,91.40
2018-02-22T04:47:03.633Z,91.40
2018-02-22T04:51:42.143Z,91.50
2018-02-22T05:01:17.315Z,91.70
2018-02-22T05:03:18.838Z,92.30
2018-02-22T05:05:20.569Z,92.80
2018-02-22T05:07:21.571Z,93.00
2018-02-22T05:09:22.548Z,93.00
2018-02-22T05:11:23.524Z,93.40
2018-02-22T05:13:26.398Z,93.90
2018-02-22T05:15:34.007Z,94.10
2018-02-22T05:20:03.233Z,94.30
2018-02-22T05:22:04.192Z,94.30
2018-02-22T05:24:05.171Z,94.70
2018-02-22T05:29:21.930Z,95.30
2018-02-22T05:31:23.056Z,95.50
2018-02-22T05:35:53.088Z,95.40
2018-02-22T05:56:14.491Z,96.20
2018-02-22T06:00:44.740Z,96.20
2018-02-22T06:10:11.222Z,96.20
2018-02-22T06:12:13.214Z,96.50
2018-02-22T06:14:15.144Z,96.20
2018-02-22T06:36:19.726Z,95.40
2018-02-22T06:38:20.751Z,95.60
2018-02-22T06:40:21.827Z,95.70
2018-02-22T07:00:20.675Z,97.40
2018-02-22T07:02:24.174Z,97.40
2018-02-22T07:04:33.009Z,97.50
2018-02-22T07:23:16.790Z,97.10
2018-02-22T07:35:07.989Z,98.10
2018-02-22T08:36:03.594Z,96.10
2018-02-22T08:40:46.804Z,95.70
2018-02-22T08:52:51.251Z,93.30
2018-02-22T09:11:33.187Z,86.10
2018-02-22T09:13:34.138Z,84.60
2018-02-22T09:15:35.107Z,83.20
2018-02-22T09:17:54.862Z,82.40
2018-02-22T09:19:55.844Z,82.90
2018-02-22T09:24:26.834Z,79.30
2018-02-22T09:33:56.230Z,63.70
2018-02-22T09:41:01.876Z,55.10
2018-02-22T09:43:03.756Z,57.80
2018-02-22T09:45:05.263Z,54.20
2018-02-22T09:47:29.324Z,50.70
2018-02-22T09:49:34.325Z,48.30
2018-02-22T09:56:35.207Z,51.20
2018-02-22T09:58:43.251Z,50.90
2018-02-22T10:14:16.068Z,52.10
2018-02-22T10:16:17.201Z,46.30
2018-02-22T10:18:19.304Z,45.80
2018-02-22T10:20:28.793Z,45.80
2018-02-22T10:22:29.742Z,46.50
2018-02-22T10:24:30.810Z,47.70
2018-02-22T10:26:31.853Z,47.50
2018-02-22T10:28:32.832Z,45.10
2018-02-22T10:32:58.623Z,43.10
2018-02-22T10:35:01.376Z,42.70
2018-02-22T10:39:20.639Z,42.10
2018-02-22T10:44:03.721Z,39.80
2018-02-22T10:46:05.797Z,38.50
2018-02-22T10:48:14.924Z,38.40
2018-02-22T10:50:17.100Z,37.80
2018-02-22T10:52:18.144Z,36.90
2018-02-22T10:56:38.951Z,37.80
2018-02-22T10:58:40.304Z,37.50
2018-02-22T11:01:00.717Z,38.90
2018-02-22T11:03:25.922Z,38.60
2018-02-22T11:05:27.070Z,39.00
2018-02-22T11:07:28.089Z,37.20
2018-02-22T11:09:54.899Z,36.90
2018-02-22T11:11:55.876Z,37.90
2018-02-22T11:18:53.443Z,40.50
2018-02-22T11:20:54.431Z,39.50
2018-02-22T11:22:55.563Z,41.10
2018-02-22T11:24:57.291Z,41.90
2018-02-22T11:26:58.244Z,41.80
2018-02-22T11:29:25.193Z,38.80
2018-02-22T11:31:26.544Z,42.60
2018-02-22T11:33:27.596Z,42.10
2018-02-22T11:35:52.418Z,41.70
2018-02-22T11:37:53.385Z,43.00
2018-02-22T11:39:54.331Z,41.80
2018-02-22T11:41:55.294Z,41.90
2018-02-22T11:43:57.015Z,45.50
2018-02-22T11:46:20.423Z,45.50
2018-02-22T11:48:21.392Z,44.70
2018-02-22T11:50:23.066Z,44.10
2018-02-22T11:52:50.667Z,44.10
2018-02-22T11:54:51.631Z,40.10
2018-02-22T11:56:52.864Z,40.60
2018-02-22T12:01:21.548Z,33.10
2018-02-22T12:03:22.645Z,33.50
2018-02-22T12:05:23.688Z,32.00
2018-02-22T12:07:24.749Z,31.50
2018-02-22T12:09:25.731Z,29.90
2018-02-22T12:11:27.428Z,29.30
2018-02-22T12:13:28.395Z,29.40
2018-02-22T12:15:53.305Z,29.00
2018-02-22T12:17:54.281Z,28.80
2018-02-22T12:19:55.289Z,28.00
2018-02-22T12:21:56.262Z,27.50
2018-02-22T12:23:58.058Z,27.50
2018-02-22T12:25:59.897Z,26.60
2018-02-22T12:28:00.867Z,26.60
2018-02-22T12:30:02.029Z,25.50
2018-02-22T12:32:03.751Z,26.80
2018-02-22T12:34:04.728Z,26.80
2018-02-22T12:36:06.473Z,26.50
2018-02-22T12:38:08.890Z,27.40
2018-02-22T12:40:10.076Z,27.50
2018-02-22T12:44:44.749Z,25.90
2018-02-22T12:46:45.724Z,25.30
2018-02-22T12:51:24.802Z,26.00
2018-02-22T12:53:45.083Z,26.90
2018-02-22T12:58:14.837Z,27.80
2018-02-22T13:02:44.487Z,28.90
2018-02-22T13:04:46.184Z,30.00
2018-02-22T13:06:47.163Z,30.00
2018-02-22T13:08:48.412Z,28.30
2018-02-22T13:10:49.441Z,28.70
2018-02-22T13:12:50.388Z,27.90
2018-02-22T13:14:51.399Z,27.20
2018-02-22T13:16:52.350Z,26.90
2018-02-22T13:18:53.376Z,25.70
2018-02-22T13:20:55.090Z,25.10
2018-02-22T13:22:56.135Z,24.40
2018-02-22T13:24:57.100Z,26.60
2018-02-22T13:26:58.082Z,25.90
2018-02-22T13:28:59.806Z,24.60
2018-02-22T13:31:00.758Z,24.50
2018-02-22T13:33:13.968Z,25.00
2018-02-22T13:35:14.953Z,24.90
2018-02-22T13:37:25.896Z,25.20
2018-02-22T13:39:26.850Z,24.60
2018-02-22T13:41:27.905Z,25.10
2018-02-22T13:43:45.817Z,23.70
2018-02-22T13:48:14.436Z,24.90
2018-02-22T13:50:27.753Z,25.90
2018-02-22T13:52:46.252Z,25.00
2018-02-22T13:54:47.223Z,25.20
2018-02-22T13:59:25.231Z,25.40
2018-02-22T14:01:38.551Z,23.60
2018-02-22T14:03:39.543Z,24.00
2018-02-22T14:05:45.071Z,25.60
2018-02-22T14:10:14.080Z,25.80
2018-02-22T14:50:03.459Z,29.70
2018-02-22T14:52:05.078Z,30.40
2018-02-22T14:54:07.092Z,31.50
2018-02-22T14:56:09.011Z,32.20
2018-02-22T14:58:36.588Z,32.20
2018-02-22T15:00:39.432Z,32.60
2018-02-22T15:02:41.152Z,32.80
2018-02-22T15:04:42.099Z,32.80
2018-02-22T15:06:43.052Z,34.00
2018-02-22T15:11:24.867Z,33.70
2018-02-22T15:13:25.950Z,34.90
2018-02-22T15:20:25.340Z,35.20
2018-02-22T15:22:26.291Z,35.60
2018-02-22T15:26:54.789Z,35.30
2018-02-22T15:28:55.762Z,36.00
2018-02-22T15:30:56.719Z,36.30
2018-02-22T15:32:57.663Z,36.70
2018-02-22T15:34:58.615Z,37.10
2018-02-22T15:36:59.568Z,37.20
2018-02-22T15:39:24.819Z,37.90
2018-02-22T15:43:55.252Z,37.80
2018-02-22T15:45:56.205Z,37.30
2018-02-22T15:47:57.147Z,37.30
2018-02-22T15:49:58.185Z,36.50
2018-02-22T15:56:55.159Z,37.10
2018-02-22T15:58:56.895Z,37.20
2018-02-22T16:08:21.773Z,38.30
2018-02-22T16:12:50.092Z,39.00
2018-02-22T16:14:51.197Z,38.70
2018-02-22T16:16:55.572Z,38.90
2018-02-22T16:18:56.529Z,38.60
2018-02-22T16:21:11.242Z,38.10
2018-02-22T16:23:12.208Z,38.70
2018-02-22T16:25:13.157Z,38.90
2018-02-22T16:27:14.095Z,39.20
2018-02-22T16:29:25.512Z,40.00
2018-02-22T16:31:26.448Z,39.40
2018-02-22T16:33:27.443Z,40.00
2018-02-22T16:35:28.445Z,39.60
2018-02-22T16:37:29.415Z,39.70
2018-02-22T16:39:30.439Z,39.90
2018-02-22T16:43:59.303Z,40.20
2018-02-22T16:46:00.324Z,40.80
2018-02-22T16:48:01.293Z,40.50
2018-02-22T16:50:02.297Z,40.50
2018-02-22T16:54:31.820Z,41.10
2018-02-22T16:56:58.513Z,41.80
2018-02-22T17:01:27.213Z,42.30
2018-02-22T17:03:29.255Z,42.20
2018-02-22T17:05:30.207Z,42.60
2018-02-22T17:09:58.508Z,42.70
2018-02-22T17:11:59.516Z,42.80
2018-02-22T17:14:00.470Z,43.50
2018-02-22T17:18:28.806Z,43.30
2018-02-22T17:20:29.740Z,44.30
2018-02-22T17:22:30.684Z,44.10
2018-02-22T17:24:31.624Z,44.80
2018-02-22T17:26:38.553Z,45.70
2018-02-22T17:28:45.665Z,45.00
2018-02-22T17:31:05.736Z,45.40
2018-02-22T17:33:28.932Z,46.20
2018-02-22T17:35:36.071Z,46.10
2018-02-22T17:37:37.869Z,46.30
2018-02-22T17:39:44.848Z,46.60
2018-02-22T17:41:45.900Z,47.40
2018-02-22T17:43:46.848Z,47.40
2018-02-22T17:48:16.039Z,48.40
2018-02-22T17:50:27.020Z,48.60
2018-02-22T17:52:27.981Z,49.20
2018-02-22T17:54:29.054Z,49.20
2018-02-22T17:56:30.008Z,49.40
2018-02-22T17:58:31.003Z,49.60
2018-02-22T18:02:59.473Z,50.30
2018-02-22T18:05:00.432Z,50.80
2018-02-22T18:07:02.598Z,51.70
2018-02-22T18:09:03.632Z,52.00
2018-02-22T18:11:04.601Z,52.00
2018-02-22T18:13:05.656Z,52.30
2018-02-22T18:15:06.680Z,52.20
2018-02-22T18:19:43.847Z,53.10
2018-02-22T18:26:40.836Z,54.40
2018-02-22T18:28:41.791Z,54.40
2018-02-22T18:30:43.670Z,55.70
2018-02-22T18:37:49.065Z,56.00
2018-02-22T18:40:06.628Z,56.50
2018-02-22T18:42:13.772Z,57.10
2018-02-22T18:44:20.814Z,57.50
2018-02-22T18:46:21.776Z,57.40
2018-02-22T18:48:22.776Z,57.70
2018-02-22T18:50:31.202Z,59.00
2018-02-22T18:52:32.159Z,58.90
2018-02-22T18:54:33.117Z,59.20
2018-02-22T18:59:11.887Z,59.80
2018-02-22T19:03:40.728Z,60.50
2018-02-22T19:05:41.686Z,60.70
2018-02-22T19:07:42.640Z,61.20
2018-02-22T19:09:50.000Z,60.90
2018-02-22T19:11:51.156Z,61.10
2018-02-22T19:13:52.108Z,61.10
2018-02-22T19:15:53.056Z,61.60
2018-02-22T19:17:54.025Z,61.30
2018-02-22T19:19:54.968Z,62.10
2018-02-22T19:21:55.951Z,61.50
2018-02-22T19:23:57.631Z,62.40
2018-02-22T19:26:16.247Z,62.30
2018-02-22T19:28:17.452Z,62.50
2018-02-22T19:30:18.389Z,62.40
2018-02-22T19:32:19.355Z,62.70
2018-02-22T19:34:44.932Z,62.20
2018-02-22T19:36:46.652Z,63.00
2018-02-22T19:38:47.622Z,63.00
2018-02-22T19:40:48.586Z,62.10
2018-02-22T19:42:49.536Z,62.10
2018-02-22T19:44:50.521Z,62.90
2018-02-22T19:47:15.479Z,62.10
2018-02-22T19:49:16.440Z,62.50
2018-02-22T19:51:17.419Z,63.30
2018-02-22T19:53:18.372Z,62.90
2018-02-22T19:55:19.312Z,63.70
2018-02-22T19:57:45.146Z,63.80
2018-02-22T19:59:46.107Z,64.50
2018-02-22T20:01:47.061Z,63.90
2018-02-22T20:03:48.041Z,64.50
2018-02-22T20:05:49.763Z,65.10
2018-02-22T20:07:50.795Z,65.10
2018-02-22T20:09:51.786Z,65.90
2018-02-22T20:11:52.777Z,66.00
2018-02-22T20:13:53.792Z,66.60
2018-02-22T20:15:55.923Z,66.90
2018-02-22T20:17:56.971Z,66.90
2018-02-22T20:19:57.944Z,66.80
2018-02-22T20:22:16.082Z,67.30
2018-02-22T20:29:14.413Z,69.10
2018-02-22T20:31:15.475Z,69.80
2018-02-22T20:33:16.520Z,70.00
2018-02-22T20:35:17.708Z,71.80
2018-02-22T20:37:44.687Z,71.00
2018-02-22T20:39:49.474Z,71.60
2018-02-22T20:42:13.776Z,71.70
2018-02-22T20:44:18.608Z,71.70
2018-02-22T20:46:19.634Z,72.80
2018-02-22T20:48:20.649Z,73.90
2018-02-22T20:50:31.692Z,74.20
2018-02-22T20:52:52.644Z,75.40
2018-02-22T20:54:54.477Z,75.40
2018-02-22T20:57:15.631Z,75.30
2018-02-22T21:01:45.353Z,75.80
2018-02-22T21:03:46.392Z,76.40
2018-02-22T21:08:15.453Z,77.00
2018-02-22T21:15:16.005Z,78.50
2018-02-22T21:19:45.676Z,79.20
2018-02-22T21:21:46.885Z,79.20
2018-02-22T21:26:16.783Z,79.40
2018-02-22T21:28:18.130Z,79.20
2018-02-22T21:30:19.896Z,79.70
2018-02-22T21:32:21.913Z,80.00
2018-02-22T21:34:22.992Z,80.00
2018-02-22T21:36:45.105Z,81.00
2018-02-22T21:38:46.104Z,81.00
2018-02-22T21:40:47.104Z,81.10
2018-02-22T21:45:16.306Z,81.70
2018-02-22T21:47:17.307Z,82.50
2018-02-22T21:49:18.303Z,82.50
2018-02-22T21:51:44.478Z,83.30
2018-02-22T21:56:13.261Z,83.90
2018-02-22T22:00:27.852Z,84.30
2018-02-22T22:04:56.409Z,84.70
2018-02-22T22:06:57.451Z,84.70
2018-02-22T22:08:58.484Z,84.80
2018-02-22T22:11:00.372Z,85.20
2018-02-22T22:13:01.458Z,85.10
2018-02-22T22:15:02.548Z,85.30
2018-02-22T22:17:04.553Z,85.50
2018-02-22T22:19:05.849Z,85.30
2018-02-22T22:21:06.990Z,85.40
2018-02-22T22:23:08.072Z,85.50
2018-02-22T22:25:15.414Z,86.10
2018-02-22T22:27:17.273Z,86.10
2018-02-22T22:32:06.888Z,87.00
2018-02-22T22:34:15.151Z,87.20
2018-02-22T22:38:44.043Z,87.60
2018-02-22T22:40:45.097Z,88.10
2018-02-22T22:42:46.398Z,87.90
2018-02-22T22:44:49.146Z,89.10
2018-02-22T22:49:17.930Z,89.30
2018-02-22T22:51:19.749Z,90.10
2018-02-22T22:53:20.740Z,90.00
2018-02-22T22:55:21.700Z,90.00
2018-02-22T22:57:46.057Z,90.40
2018-02-22T22:59:47.203Z,90.40
2018-02-22T23:02:14.652Z,90.20
2018-02-22T23:04:15.781Z,90.40
2018-02-22T23:06:16.751Z,90.80
2018-02-22T23:13:22.783Z,91.00
2018-02-22T23:15:23.783Z,90.90
2018-02-22T23:17:46.372Z,91.10
2018-02-22T23:19:56.254Z,91.30
2018-02-22T23:21:58.635Z,91.60
2018-02-22T23:23:59.864Z,91.60
2018-02-22T23:26:00.844Z,91.90
2018-02-22T23:28:01.840Z,91.90
2018-02-22T23:30:02.845Z,91.90
2018-02-22T23:32:03.855Z,91.90
2018-02-22T23:34:04.966Z,92.10
2018-02-22T23:36:05.990Z,92.20
2018-02-22T23:38:07.003Z,92.10
2018-02-22T23:40:09.168Z,92.50
2018-02-22T23:42:17.715Z,92.50
2018-02-22T23:44:21.071Z,92.40
2018-02-22T23:46:29.777Z,92.40
2018-02-22T23:48:30.765Z,92.70
2018-02-22T23:50:31.758Z,92.70
2018-02-22T23:52:59.297Z,92.80
